MDT,Max TemperatureF,Mean TemperatureF,Min TemperatureF,Max Dew PointF,MeanDew PointF,Min DewpointF,Max Humidity, Mean Humidity, Min Humidity, Max Sea Level PressureIn, Mean Sea Level PressureIn, Min Sea Level PressureIn, Max VisibilityMiles, Mean VisibilityMiles, Min VisibilityMiles, Max Wind SpeedMPH, Mean Wind SpeedMPH, Max Gust SpeedMPH,PrecipitationIn, CloudCover, Events, WindDirDegrees
2012-3-1,35,26,17,27,24,14,92,78,64,29.94,29.81,29.75,10,4,0,22,6,30,0.14,7,Fog-Snow,265
2012-3-2,32,22,11,16,13,6,84,62,39,30.38,30.07,29.82,10,10,10,22,6,29,0.02,5,,232
2012-3-3,35,22,8,19,10,4,83,61,38,30.59,30.51,30.39,10,10,10,9,2,13,0.00,4,,193
2012-3-4,47,34,20,26,20,14,84,61,38,30.55,30.44,30.33,10,10,10,10,2,14,0.00,3,,225
2012-3-5,55,38,21,27,22,18,88,59,30,30.35,30.20,30.01,10,10,10,16,3,20,0.00,0,,201
2012-3-6,62,43,24,24,18,10,88,52,15,29.97,29.62,29.39,10,10,10,30,7,38,0.00,2,,206
2012-3-7,53,40,26,29,20,10,85,52,18,30.10,29.70,29.39,10,10,10,28,9,36,0.00,2,,212
2012-3-8,53,38,22,25,19,14,88,55,22,30.52,30.35,30.14,10,10,10,20,5,24,0.00,0,,46
2012-3-9,59,41,22,21,16,3,81,46,11,30.56,30.37,30.17,10,10,10,15,3,18,0.00,0,,163
2012-3-10,62,42,22,22,18,13,88,52,15,30.19,30.00,29.81,10,10,10,16,5,20,0.00,0,,246
2012-3-11,60,42,23,23,19,14,88,52,16,29.91,29.82,29.73,10,10,10,23,5,28,0.00,0,,247
2012-3-12,62,43,24,23,19,13,81,48,14,30.06,29.96,29.84,10,10,10,22,6,28,0.00,0,,224
2012-3-13,66,47,28,21,14,6,69,40,10,30.01,29.92,29.82,10,10,10,23,7,31,0.00,0,,232
2012-3-14,66,46,26,20,12,3,63,36,9,30.07,29.99,29.90,10,10,10,22,6,30,0.00,0,,239
2012-3-15,68,49,30,26,19,12,63,39,15,30.20,30.07,29.96,10,10,10,16,4,18,0.00,1,,245
2012-3-16,72,52,31,26,20,12,69,40,11,29.99,29.85,29.73,10,10,10,26,5,38,0.00,0,,220
2012-3-17,68,51,33,25,19,12,52,32,12,29.73,29.63,29.52,10,10,10,26,7,35,0.00,1,,229
2012-3-18,60,45,30,37,27,19,85,55,24,29.62,29.47,29.26,10,7,0,33,11,44,0.09,5,Fog-Rain-Snow,217
2012-3-19,45,35,24,26,20,12,88,59,30,29.87,29.69,29.58,10,10,9,26,9,30,T,4,Snow,302
2012-3-20,48,33,18,25,16,7,92,56,19,30.16,30.05,29.85,10,10,10,16,4,21,0.00,1,,238
2012-3-21,60,46,32,25,22,17,69,47,25,30.20,30.08,29.94,10,10,10,12,3,15,0.00,4,,262
2012-3-22,69,48,26,25,22,8,81,46,11,30.12,29.98,29.83,10,10,10,16,3,21,0.00,0,,234
2012-3-23,73,51,28,24,21,16,75,44,12,30.08,29.97,29.87,10,10,10,24,6,29,0.00,0,,140
2012-3-24,73,52,31,25,22,19,64,39,14,30.11,30.00,29.90,10,10,10,16,3,21,0.00,0,,217
2012-3-25,75,55,34,27,23,18,54,34,13,30.00,29.87,29.72,10,10,10,23,5,28,0.00,0,,218
2012-3-26,66,50,34,27,17,7,53,32,11,29.94,29.74,29.61,10,10,10,39,13,56,0.00,0,,218
2012-3-27,65,45,25,24,18,15,63,40,16,30.13,30.02,29.95,10,10,10,22,4,26,0.00,0,,225
2012-3-28,73,52,30,24,19,9,69,41,12,30.03,29.90,29.80,10,10,2,29,7,36,0.00,0,,253
2012-3-29,68,56,44,31,23,13,50,31,12,29.95,29.87,29.79,10,10,10,18,7,28,0.00,1,,261
2012-3-30,70,51,32,27,24,21,61,39,17,29.99,29.91,29.83,10,10,10,24,6,29,0.00,1,,266
2012-3-31,79,56,33,29,23,13,70,40,9,29.96,29.79,29.60,10,10,10,15,6,21,0.00,0,,221